Aeroporto :
LOGIN :

Iscrizione | Disclaimer

   EN    FR    IT 

 










Sommario :    VFR   VFR Marginale   IFR   IFR Intensivo   IFR Molto Intensivo
Visibilità : 
Base nubi : 
>= 8 km
>= 3000ft
5 / 8 km
1000 / 3000 ft
1500m / 5 km
500 / 1000 ft
800 / 1500m
200 / 500 ft
< 800m
< 200 ft
Simboli :   Temporali  Nebbia  Neve Forte  Precipitazioni Forti  Vento > 20 kt
SIGMETs :   Varie  Temporali  Ghiacco  Turbolenza  Onda orograficha  Ceneri Vulcaniche






- Altitudine del aeroporto : 218 ft


EGYD - RAF Cranwell

ULTIMO METAR :
  • 181650Z AUTO 28010KT 9999 // NCD 05/01 Q1029

METARs OBSOLETI :
  • 181550Z 29010KT 9999 FEW027 SCT250 05/01 Q1028 RMK BLU
  • 181520Z 29011KT 9999 FEW027 06/01 Q1028 NOSIG RMK BLU BLU
  • 181450Z 30012KT 9999 FEW027 07/01 Q1027 NOSIG RMK BLU BLU
  • 181420Z 30012KT 9999 FEW027 07/00 Q1027 NOSIG RMK BLU BLU

TAF TAF EGYD
Valido dal 18 a 15 ore il 18 a 18 ore UTC


181337Z 1815/1818 28012KT 9999 FEW025



MetMap, La meteo Aeronautica in un colpo d'occhio ! - Copyright ORBIFLY Dicembre 2007 - Disclaimer

ORBIFLY MET'MAP TEAM :

Programmazione e sviluppo : Alexandra Zaïnal
Concezione : Baudouin d'Aumeries
Aiuto per la programmazione : Marc-Olivier Méhu
Supporto tecnico e logistico : Manuel Goepfert
Aiuto per la traduzione : Arnaldo La Scala

Contatto : metmap@orbifly.com




FONTI E CREDITI :

   NOAA